sensor_id;sensor_type;location;lat;lon;timestamp;P1;durP1;ratioP1;P2;durP2;ratioP2
77026;SDS011;65956;52.986;17.490;2023-04-30T00:01:02;9.60;;;6.00;;
77026;SDS011;65956;52.986;17.490;2023-04-30T00:03:31;11.30;;;7.00;;
77026;SDS011;65956;52.986;17.490;2023-04-30T00:05:57;11.60;;;7.50;;
77026;SDS011;65956;52.986;17.490;2023-04-30T00:08:23;13.20;;;7.40;;
77026;SDS011;65956;52.986;17.490;2023-04-30T00:10:49;13.50;;;7.50;;
77026;SDS011;65956;52.986;17.490;2023-04-30T00:13:16;12.10;;;7.70;;
77026;SDS011;65956;52.986;17.490;2023-04-30T00:15:43;12.80;;;7.90;;
77026;SDS011;65956;52.986;17.490;2023-04-30T00:18:09;16.20;;;8.20;;
77026;SDS011;65956;52.986;17.490;2023-04-30T00:20:35;12.40;;;7.50;;
77026;SDS011;65956;52.986;17.490;2023-04-30T00:23:01;13.80;;;7.60;;
77026;SDS011;65956;52.986;17.490;2023-04-30T00:25:27;13.70;;;8.30;;
77026;SDS011;65956;52.986;17.490;2023-04-30T00:27:53;13.60;;;7.90;;
77026;SDS011;65956;52.986;17.490;2023-04-30T00:30:19;12.50;;;7.40;;
77026;SDS011;65956;52.986;17.490;2023-04-30T00:32:45;12.40;;;7.70;;
77026;SDS011;65956;52.986;17.490;2023-04-30T00:35:11;11.00;;;7.20;;
77026;SDS011;65956;52.986;17.490;2023-04-30T00:37:37;13.30;;;7.60;;
77026;SDS011;65956;52.986;17.490;2023-04-30T00:40:03;13.70;;;7.50;;
77026;SDS011;65956;52.986;17.490;2023-04-30T00:42:30;12.40;;;7.70;;
77026;SDS011;65956;52.986;17.490;2023-04-30T00:44:56;14.80;;;8.20;;
77026;SDS011;65956;52.986;17.490;2023-04-30T00:47:23;12.80;;;7.90;;
77026;SDS011;65956;52.986;17.490;2023-04-30T00:49:49;13.90;;;7.20;;
77026;SDS011;65956;52.986;17.490;2023-04-30T00:52:15;13.90;;;8.10;;
77026;SDS011;65956;52.986;17.490;2023-04-30T00:54:41;15.70;;;8.70;;
77026;SDS011;65956;52.986;17.490;2023-04-30T00:57:08;14.70;;;8.70;;
77026;SDS011;65956;52.986;17.490;2023-04-30T00:59:37;15.60;;;7.70;;
77026;SDS011;65956;52.986;17.490;2023-04-30T01:02:03;13.90;;;8.70;;
77026;SDS011;65956;52.986;17.490;2023-04-30T01:04:29;13.90;;;8.40;;
77026;SDS011;65956;52.986;17.490;2023-04-30T01:06:56;13.30;;;7.40;;
77026;SDS011;65956;52.986;17.490;2023-04-30T01:09:22;15.10;;;8.00;;
77026;SDS011;65956;52.986;17.490;2023-04-30T01:11:52;12.20;;;7.30;;
77026;SDS011;65956;52.986;17.490;2023-04-30T01:14:24;13.10;;;7.70;;
77026;SDS011;65956;52.986;17.490;2023-04-30T01:16:58;15.50;;;8.00;;
77026;SDS011;65956;52.986;17.490;2023-04-30T01:19:44;14.40;;;8.00;;
77026;SDS011;65956;52.986;17.490;2023-04-30T01:22:13;12.30;;;8.10;;
77026;SDS011;65956;52.986;17.490;2023-04-30T01:30:24;17.20;;;7.50;;
77026;SDS011;65956;52.986;17.490;2023-04-30T01:32:51;15.00;;;8.10;;
77026;SDS011;65956;52.986;17.490;2023-04-30T01:35:17;15.30;;;8.70;;
77026;SDS011;65956;52.986;17.490;2023-04-30T01:37:56;14.50;;;8.10;;
77026;SDS011;65956;52.986;17.490;2023-04-30T01:46:26;16.10;;;8.00;;
77026;SDS011;65956;52.986;17.490;2023-04-30T01:51:42;14.20;;;8.00;;
77026;SDS011;65956;52.986;17.490;2023-04-30T01:54:15;14.90;;;8.00;;
77026;SDS011;65956;52.986;17.490;2023-04-30T01:57:05;15.60;;;8.50;;
77026;SDS011;65956;52.986;17.490;2023-04-30T01:59:33;14.10;;;7.80;;
77026;SDS011;65956;52.986;17.490;2023-04-30T02:02:01;14.80;;;7.30;;
77026;SDS011;65956;52.986;17.490;2023-04-30T02:04:29;13.30;;;8.30;;
77026;SDS011;65956;52.986;17.490;2023-04-30T04:09:49;10.70;;;4.40;;
77026;SDS011;65956;52.986;17.490;2023-04-30T04:12:15;10.60;;;5.30;;
77026;SDS011;65956;52.986;17.490;2023-04-30T04:14:41;13.00;;;4.90;;
77026;SDS011;65956;52.986;17.490;2023-04-30T04:17:06;12.80;;;5.30;;
77026;SDS011;65956;52.986;17.490;2023-04-30T04:19:33;11.10;;;5.30;;
77026;SDS011;65956;52.986;17.490;2023-04-30T04:21:59;10.10;;;4.70;;
77026;SDS011;65956;52.986;17.490;2023-04-30T04:24:25;10.60;;;5.80;;
77026;SDS011;65956;52.986;17.490;2023-04-30T04:26:51;10.10;;;4.90;;
77026;SDS011;65956;52.986;17.490;2023-04-30T04:29:18;9.90;;;4.90;;
77026;SDS011;65956;52.986;17.490;2023-04-30T04:31:44;11.70;;;5.80;;
77026;SDS011;65956;52.986;17.490;2023-04-30T04:34:13;11.50;;;5.60;;
77026;SDS011;65956;52.986;17.490;2023-04-30T04:36:39;9.90;;;4.00;;
77026;SDS011;65956;52.986;17.490;2023-04-30T04:39:06;14.10;;;4.80;;
77026;SDS011;65956;52.986;17.490;2023-04-30T04:41:33;13.70;;;5.10;;
77026;SDS011;65956;52.986;17.490;2023-04-30T04:44:02;12.00;;;5.00;;
77026;SDS011;65956;52.986;17.490;2023-04-30T04:46:30;9.80;;;4.60;;
77026;SDS011;65956;52.986;17.490;2023-04-30T04:48:57;11.30;;;5.00;;
77026;SDS011;65956;52.986;17.490;2023-04-30T04:51:23;16.50;;;7.00;;
77026;SDS011;65956;52.986;17.490;2023-04-30T04:53:50;16.60;;;6.90;;
77026;SDS011;65956;52.986;17.490;2023-04-30T04:56:17;14.10;;;5.40;;
77026;SDS011;65956;52.986;17.490;2023-04-30T04:58:43;13.80;;;5.10;;
77026;SDS011;65956;52.986;17.490;2023-04-30T05:01:10;7.40;;;3.30;;
77026;SDS011;65956;52.986;17.490;2023-04-30T05:03:36;8.80;;;2.90;;
77026;SDS011;65956;52.986;17.490;2023-04-30T05:06:02;9.00;;;3.70;;
77026;SDS011;65956;52.986;17.490;2023-04-30T05:08:30;9.40;;;2.80;;
77026;SDS011;65956;52.986;17.490;2023-04-30T05:10:56;6.70;;;3.00;;
77026;SDS011;65956;52.986;17.490;2023-04-30T05:13:22;8.80;;;3.70;;
77026;SDS011;65956;52.986;17.490;2023-04-30T05:15:49;8.60;;;3.00;;
77026;SDS011;65956;52.986;17.490;2023-04-30T05:18:16;12.10;;;4.00;;
77026;SDS011;65956;52.986;17.490;2023-04-30T05:20:42;8.50;;;2.70;;
77026;SDS011;65956;52.986;17.490;2023-04-30T05:23:08;9.60;;;2.90;;
77026;SDS011;65956;52.986;17.490;2023-04-30T05:25:35;10.30;;;2.80;;
77026;SDS011;65956;52.986;17.490;2023-04-30T05:28:01;6.80;;;2.50;;
77026;SDS011;65956;52.986;17.490;2023-04-30T05:30:28;6.80;;;2.50;;
77026;SDS011;65956;52.986;17.490;2023-04-30T05:32:54;9.50;;;3.10;;
77026;SDS011;65956;52.986;17.490;2023-04-30T05:35:21;9.20;;;2.50;;
77026;SDS011;65956;52.986;17.490;2023-04-30T05:37:47;7.20;;;2.70;;
77026;SDS011;65956;52.986;17.490;2023-04-30T05:40:13;6.20;;;2.30;;
77026;SDS011;65956;52.986;17.490;2023-04-30T05:42:40;6.10;;;2.50;;
77026;SDS011;65956;52.986;17.490;2023-04-30T05:45:08;7.00;;;2.40;;
77026;SDS011;65956;52.986;17.490;2023-04-30T05:47:37;7.70;;;2.60;;
77026;SDS011;65956;52.986;17.490;2023-04-30T05:50:03;7.60;;;2.70;;
77026;SDS011;65956;52.986;17.490;2023-04-30T05:52:29;6.70;;;2.40;;
77026;SDS011;65956;52.986;17.490;2023-04-30T05:54:55;6.80;;;2.70;;
77026;SDS011;65956;52.986;17.490;2023-04-30T05:57:21;8.20;;;2.50;;
77026;SDS011;65956;52.986;17.490;2023-04-30T05:59:47;8.70;;;2.60;;
77026;SDS011;65956;52.986;17.490;2023-04-30T06:02:14;9.80;;;2.80;;
77026;SDS011;65956;52.986;17.490;2023-04-30T06:04:40;9.70;;;2.90;;
77026;SDS011;65956;52.986;17.490;2023-04-30T06:07:07;9.60;;;3.20;;
77026;SDS011;65956;52.986;17.490;2023-04-30T06:09:33;7.80;;;3.30;;
77026;SDS011;65956;52.986;17.490;2023-04-30T06:11:59;8.10;;;2.70;;
77026;SDS011;65956;52.986;17.490;2023-04-30T06:14:25;9.00;;;2.60;;
77026;SDS011;65956;52.986;17.490;2023-04-30T06:16:51;10.70;;;2.50;;
77026;SDS011;65956;52.986;17.490;2023-04-30T06:19:17;7.00;;;3.30;;
77026;SDS011;65956;52.986;17.490;2023-04-30T06:21:43;8.60;;;2.20;;
77026;SDS011;65956;52.986;17.490;2023-04-30T06:24:09;6.30;;;1.90;;
77026;SDS011;65956;52.986;17.490;2023-04-30T06:26:35;7.90;;;2.30;;
77026;SDS011;65956;52.986;17.490;2023-04-30T06:29:01;6.40;;;1.80;;
77026;SDS011;65956;52.986;17.490;2023-04-30T06:31:27;6.20;;;2.20;;
77026;SDS011;65956;52.986;17.490;2023-04-30T06:33:53;6.10;;;1.90;;
77026;SDS011;65956;52.986;17.490;2023-04-30T06:36:19;7.70;;;1.90;;
77026;SDS011;65956;52.986;17.490;2023-04-30T06:38:45;5.80;;;1.80;;
77026;SDS011;65956;52.986;17.490;2023-04-30T06:41:12;6.70;;;2.30;;
77026;SDS011;65956;52.986;17.490;2023-04-30T06:43:38;7.50;;;2.20;;
77026;SDS011;65956;52.986;17.490;2023-04-30T06:46:04;6.60;;;2.00;;
77026;SDS011;65956;52.986;17.490;2023-04-30T06:48:31;6.60;;;1.90;;
77026;SDS011;65956;52.986;17.490;2023-04-30T06:50:57;7.90;;;2.70;;
77026;SDS011;65956;52.986;17.490;2023-04-30T06:53:24;7.50;;;2.20;;
77026;SDS011;65956;52.986;17.490;2023-04-30T06:55:50;6.50;;;2.40;;
77026;SDS011;65956;52.986;17.490;2023-04-30T06:58:16;7.40;;;2.40;;
77026;SDS011;65956;52.986;17.490;2023-04-30T07:00:43;10.90;;;2.70;;
77026;SDS011;65956;52.986;17.490;2023-04-30T07:03:09;6.50;;;2.20;;
77026;SDS011;65956;52.986;17.490;2023-04-30T07:05:35;7.40;;;2.30;;
77026;SDS011;65956;52.986;17.490;2023-04-30T07:08:02;6.30;;;2.60;;
77026;SDS011;65956;52.986;17.490;2023-04-30T07:10:29;6.20;;;2.10;;
77026;SDS011;65956;52.986;17.490;2023-04-30T07:12:56;7.40;;;2.30;;
77026;SDS011;65956;52.986;17.490;2023-04-30T07:15:22;9.60;;;2.30;;
77026;SDS011;65956;52.986;17.490;2023-04-30T07:17:50;7.80;;;2.40;;
77026;SDS011;65956;52.986;17.490;2023-04-30T07:20:16;6.00;;;2.40;;
77026;SDS011;65956;52.986;17.490;2023-04-30T07:22:42;6.80;;;2.30;;
77026;SDS011;65956;52.986;17.490;2023-04-30T07:25:11;7.80;;;2.60;;
77026;SDS011;65956;52.986;17.490;2023-04-30T07:27:37;5.20;;;1.80;;
77026;SDS011;65956;52.986;17.490;2023-04-30T07:30:05;7.90;;;2.10;;
77026;SDS011;65956;52.986;17.490;2023-04-30T07:32:34;9.70;;;2.60;;
77026;SDS011;65956;52.986;17.490;2023-04-30T07:35:02;4.90;;;2.10;;
77026;SDS011;65956;52.986;17.490;2023-04-30T07:37:28;8.80;;;2.50;;
77026;SDS011;65956;52.986;17.490;2023-04-30T07:39:54;10.70;;;3.80;;
77026;SDS011;65956;52.986;17.490;2023-04-30T07:42:21;10.50;;;3.30;;
77026;SDS011;65956;52.986;17.490;2023-04-30T07:44:47;10.30;;;3.30;;
77026;SDS011;65956;52.986;17.490;2023-04-30T07:47:13;8.10;;;2.60;;
77026;SDS011;65956;52.986;17.490;2023-04-30T07:49:39;6.10;;;2.10;;
77026;SDS011;65956;52.986;17.490;2023-04-30T07:52:05;5.90;;;2.00;;
77026;SDS011;65956;52.986;17.490;2023-04-30T07:54:35;6.20;;;1.80;;
77026;SDS011;65956;52.986;17.490;2023-04-30T07:57:05;7.50;;;1.80;;
77026;SDS011;65956;52.986;17.490;2023-04-30T07:59:32;7.20;;;1.80;;
77026;SDS011;65956;52.986;17.490;2023-04-30T08:01:58;4.90;;;1.80;;
77026;SDS011;65956;52.986;17.490;2023-04-30T08:04:24;6.00;;;2.00;;
77026;SDS011;65956;52.986;17.490;2023-04-30T08:06:50;5.50;;;2.00;;
77026;SDS011;65956;52.986;17.490;2023-04-30T08:09:16;6.00;;;1.80;;
77026;SDS011;65956;52.986;17.490;2023-04-30T08:11:42;6.10;;;1.60;;
77026;SDS011;65956;52.986;17.490;2023-04-30T08:14:08;5.30;;;1.90;;
77026;SDS011;65956;52.986;17.490;2023-04-30T08:16:34;5.50;;;2.20;;
77026;SDS011;65956;52.986;17.490;2023-04-30T08:19:00;4.60;;;1.50;;
77026;SDS011;65956;52.986;17.490;2023-04-30T08:21:26;5.70;;;1.90;;
77026;SDS011;65956;52.986;17.490;2023-04-30T08:23:53;8.50;;;2.30;;
77026;SDS011;65956;52.986;17.490;2023-04-30T08:26:19;5.50;;;2.10;;
77026;SDS011;65956;52.986;17.490;2023-04-30T08:28:46;9.00;;;2.50;;
77026;SDS011;65956;52.986;17.490;2023-04-30T08:31:12;4.00;;;1.40;;
77026;SDS011;65956;52.986;17.490;2023-04-30T08:33:38;5.60;;;2.00;;
77026;SDS011;65956;52.986;17.490;2023-04-30T08:36:05;7.20;;;1.70;;
77026;SDS011;65956;52.986;17.490;2023-04-30T08:38:31;5.40;;;1.60;;
77026;SDS011;65956;52.986;17.490;2023-04-30T08:41:19;5.40;;;1.90;;
77026;SDS011;65956;52.986;17.490;2023-04-30T08:43:45;5.90;;;2.00;;
77026;SDS011;65956;52.986;17.490;2023-04-30T08:46:16;4.80;;;1.80;;
77026;SDS011;65956;52.986;17.490;2023-04-30T08:48:43;5.30;;;1.60;;
77026;SDS011;65956;52.986;17.490;2023-04-30T08:51:10;5.20;;;1.70;;
77026;SDS011;65956;52.986;17.490;2023-04-30T08:53:36;7.00;;;2.00;;
77026;SDS011;65956;52.986;17.490;2023-04-30T08:56:03;5.20;;;1.60;;
77026;SDS011;65956;52.986;17.490;2023-04-30T08:58:29;7.90;;;2.00;;
77026;SDS011;65956;52.986;17.490;2023-04-30T09:00:58;6.50;;;1.90;;
77026;SDS011;65956;52.986;17.490;2023-04-30T09:03:25;5.10;;;1.70;;
77026;SDS011;65956;52.986;17.490;2023-04-30T09:05:52;5.10;;;1.90;;
77026;SDS011;65956;52.986;17.490;2023-04-30T09:08:27;5.50;;;1.70;;
77026;SDS011;65956;52.986;17.490;2023-04-30T09:11:48;6.30;;;1.70;;
77026;SDS011;65956;52.986;17.490;2023-04-30T09:13:59;5.30;;;1.50;;
77026;SDS011;65956;52.986;17.490;2023-04-30T09:16:27;6.10;;;1.80;;
77026;SDS011;65956;52.986;17.490;2023-04-30T09:18:55;6.30;;;1.70;;
77026;SDS011;65956;52.986;17.490;2023-04-30T09:21:34;5.40;;;1.40;;
77026;SDS011;65956;52.986;17.490;2023-04-30T09:24:02;4.80;;;1.60;;
77026;SDS011;65956;52.986;17.490;2023-04-30T09:26:30;5.30;;;1.90;;
77026;SDS011;65956;52.986;17.490;2023-04-30T09:28:58;5.70;;;1.30;;
77026;SDS011;65956;52.986;17.490;2023-04-30T09:31:25;5.50;;;1.70;;
77026;SDS011;65956;52.986;17.490;2023-04-30T09:33:52;5.40;;;1.70;;
77026;SDS011;65956;52.986;17.490;2023-04-30T09:36:19;5.10;;;1.40;;
77026;SDS011;65956;52.986;17.490;2023-04-30T09:38:45;5.20;;;1.40;;
77026;SDS011;65956;52.986;17.490;2023-04-30T09:41:21;5.60;;;1.60;;
77026;SDS011;65956;52.986;17.490;2023-04-30T09:43:55;5.00;;;1.50;;
77026;SDS011;65956;52.986;17.490;2023-04-30T09:46:29;7.10;;;1.90;;
77026;SDS011;65956;52.986;17.490;2023-04-30T09:49:00;4.70;;;1.70;;
77026;SDS011;65956;52.986;17.490;2023-04-30T09:51:27;5.80;;;1.80;;
77026;SDS011;65956;52.986;17.490;2023-04-30T09:53:53;4.10;;;1.40;;
77026;SDS011;65956;52.986;17.490;2023-04-30T09:56:24;6.00;;;1.70;;
77026;SDS011;65956;52.986;17.490;2023-04-30T09:58:52;7.80;;;2.80;;
77026;SDS011;65956;52.986;17.490;2023-04-30T10:01:20;5.10;;;1.90;;
77026;SDS011;65956;52.986;17.490;2023-04-30T10:03:47;6.90;;;1.90;;
77026;SDS011;65956;52.986;17.490;2023-04-30T10:06:14;4.70;;;1.40;;
77026;SDS011;65956;52.986;17.490;2023-04-30T10:08:47;4.90;;;1.60;;
77026;SDS011;65956;52.986;17.490;2023-04-30T10:11:19;6.00;;;1.60;;
77026;SDS011;65956;52.986;17.490;2023-04-30T10:18:53;6.00;;;1.60;;
77026;SDS011;65956;52.986;17.490;2023-04-30T10:21:21;5.50;;;1.90;;
77026;SDS011;65956;52.986;17.490;2023-04-30T10:23:49;6.30;;;2.00;;
77026;SDS011;65956;52.986;17.490;2023-04-30T10:26:17;4.70;;;1.90;;
77026;SDS011;65956;52.986;17.490;2023-04-30T10:28:44;3.70;;;1.40;;
77026;SDS011;65956;52.986;17.490;2023-04-30T10:31:13;4.70;;;1.40;;
77026;SDS011;65956;52.986;17.490;2023-04-30T10:33:49;4.20;;;1.50;;
77026;SDS011;65956;52.986;17.490;2023-04-30T10:36:25;7.10;;;1.80;;
77026;SDS011;65956;52.986;17.490;2023-04-30T10:38:58;5.50;;;1.40;;
77026;SDS011;65956;52.986;17.490;2023-04-30T10:41:25;4.70;;;1.60;;
77026;SDS011;65956;52.986;17.490;2023-04-30T10:43:55;5.70;;;1.50;;
77026;SDS011;65956;52.986;17.490;2023-04-30T10:46:23;3.90;;;1.60;;
77026;SDS011;65956;52.986;17.490;2023-04-30T10:48:51;4.20;;;1.50;;
77026;SDS011;65956;52.986;17.490;2023-04-30T10:51:19;4.80;;;1.70;;
77026;SDS011;65956;52.986;17.490;2023-04-30T10:53:49;5.70;;;1.80;;
77026;SDS011;65956;52.986;17.490;2023-04-30T10:56:32;3.90;;;1.50;;
77026;SDS011;65956;52.986;17.490;2023-04-30T10:58:59;4.40;;;1.50;;
77026;SDS011;65956;52.986;17.490;2023-04-30T11:01:27;4.10;;;1.50;;
77026;SDS011;65956;52.986;17.490;2023-04-30T11:04:05;6.70;;;1.70;;
77026;SDS011;65956;52.986;17.490;2023-04-30T11:09:17;5.80;;;1.80;;
77026;SDS011;65956;52.986;17.490;2023-04-30T11:11:43;5.30;;;1.60;;
77026;SDS011;65956;52.986;17.490;2023-04-30T11:14:10;5.90;;;1.80;;
77026;SDS011;65956;52.986;17.490;2023-04-30T11:16:37;5.40;;;1.50;;
77026;SDS011;65956;52.986;17.490;2023-04-30T11:19:06;5.00;;;1.60;;
77026;SDS011;65956;52.986;17.490;2023-04-30T11:21:39;6.20;;;1.60;;
77026;SDS011;65956;52.986;17.490;2023-04-30T11:24:48;6.60;;;1.90;;
77026;SDS011;65956;52.986;17.490;2023-04-30T11:27:22;5.60;;;2.10;;
77026;SDS011;65956;52.986;17.490;2023-04-30T11:29:49;5.10;;;2.00;;
77026;SDS011;65956;52.986;17.490;2023-04-30T11:32:21;5.10;;;1.90;;
77026;SDS011;65956;52.986;17.490;2023-04-30T11:34:48;6.10;;;2.10;;
77026;SDS011;65956;52.986;17.490;2023-04-30T11:37:19;4.60;;;1.70;;
77026;SDS011;65956;52.986;17.490;2023-04-30T11:39:47;5.50;;;1.90;;
77026;SDS011;65956;52.986;17.490;2023-04-30T11:42:15;5.20;;;1.90;;
77026;SDS011;65956;52.986;17.490;2023-04-30T11:44:44;5.60;;;2.00;;
77026;SDS011;65956;52.986;17.490;2023-04-30T11:47:13;5.90;;;1.90;;
77026;SDS011;65956;52.986;17.490;2023-04-30T11:49:43;3.70;;;1.80;;
77026;SDS011;65956;52.986;17.490;2023-04-30T11:52:11;5.40;;;2.00;;
77026;SDS011;65956;52.986;17.490;2023-04-30T11:54:37;4.70;;;1.50;;
77026;SDS011;65956;52.986;17.490;2023-04-30T11:57:04;5.50;;;1.50;;
77026;SDS011;65956;52.986;17.490;2023-04-30T11:59:31;4.20;;;1.60;;
77026;SDS011;65956;52.986;17.490;2023-04-30T12:02:05;6.00;;;1.80;;
77026;SDS011;65956;52.986;17.490;2023-04-30T12:04:32;12.80;;;6.50;;
77026;SDS011;65956;52.986;17.490;2023-04-30T12:06:59;4.80;;;1.80;;
77026;SDS011;65956;52.986;17.490;2023-04-30T12:09:25;5.30;;;1.90;;
77026;SDS011;65956;52.986;17.490;2023-04-30T12:11:51;4.30;;;1.80;;
77026;SDS011;65956;52.986;17.490;2023-04-30T12:14:17;8.50;;;3.50;;
77026;SDS011;65956;52.986;17.490;2023-04-30T12:16:46;4.00;;;1.70;;
77026;SDS011;65956;52.986;17.490;2023-04-30T12:19:19;4.20;;;1.80;;
77026;SDS011;65956;52.986;17.490;2023-04-30T12:21:47;5.70;;;2.20;;
77026;SDS011;65956;52.986;17.490;2023-04-30T12:24:17;3.90;;;1.80;;
77026;SDS011;65956;52.986;17.490;2023-04-30T12:26:44;4.30;;;1.50;;
77026;SDS011;65956;52.986;17.490;2023-04-30T12:29:14;5.10;;;2.30;;
77026;SDS011;65956;52.986;17.490;2023-04-30T12:31:41;5.30;;;2.30;;
77026;SDS011;65956;52.986;17.490;2023-04-30T12:34:08;5.60;;;1.70;;
77026;SDS011;65956;52.986;17.490;2023-04-30T12:36:37;6.40;;;2.20;;
77026;SDS011;65956;52.986;17.490;2023-04-30T12:39:07;6.80;;;2.20;;
77026;SDS011;65956;52.986;17.490;2023-04-30T12:41:44;6.90;;;3.20;;
77026;SDS011;65956;52.986;17.490;2023-04-30T12:44:25;6.00;;;2.20;;
77026;SDS011;65956;52.986;17.490;2023-04-30T12:46:53;5.40;;;2.10;;
77026;SDS011;65956;52.986;17.490;2023-04-30T12:49:26;8.20;;;3.10;;
77026;SDS011;65956;52.986;17.490;2023-04-30T12:52:02;6.30;;;2.00;;
77026;SDS011;65956;52.986;17.490;2023-04-30T12:54:36;4.90;;;2.10;;
77026;SDS011;65956;52.986;17.490;2023-04-30T12:59:37;7.60;;;5.90;;
77026;SDS011;65956;52.986;17.490;2023-04-30T13:02:23;6.10;;;2.50;;
77026;SDS011;65956;52.986;17.490;2023-04-30T13:04:52;5.90;;;2.20;;
77026;SDS011;65956;52.986;17.490;2023-04-30T13:07:19;4.40;;;1.90;;
77026;SDS011;65956;52.986;17.490;2023-04-30T13:09:45;4.80;;;2.10;;
77026;SDS011;65956;52.986;17.490;2023-04-30T13:12:11;5.10;;;3.70;;
77026;SDS011;65956;52.986;17.490;2023-04-30T13:14:37;6.20;;;2.00;;
77026;SDS011;65956;52.986;17.490;2023-04-30T13:17:03;4.30;;;1.90;;
77026;SDS011;65956;52.986;17.490;2023-04-30T13:19:32;4.20;;;2.10;;
77026;SDS011;65956;52.986;17.490;2023-04-30T13:21:59;6.90;;;2.40;;
77026;SDS011;65956;52.986;17.490;2023-04-30T13:24:26;5.50;;;2.00;;
77026;SDS011;65956;52.986;17.490;2023-04-30T13:26:52;5.60;;;2.40;;
77026;SDS011;65956;52.986;17.490;2023-04-30T13:29:18;4.40;;;1.80;;
77026;SDS011;65956;52.986;17.490;2023-04-30T13:31:45;5.50;;;2.10;;
77026;SDS011;65956;52.986;17.490;2023-04-30T13:34:13;6.40;;;2.20;;
77026;SDS011;65956;52.986;17.490;2023-04-30T13:36:40;5.70;;;2.50;;
77026;SDS011;65956;52.986;17.490;2023-04-30T13:39:06;6.00;;;2.70;;
77026;SDS011;65956;52.986;17.490;2023-04-30T13:41:32;4.30;;;2.00;;
77026;SDS011;65956;52.986;17.490;2023-04-30T13:43:58;5.50;;;2.10;;
77026;SDS011;65956;52.986;17.490;2023-04-30T13:46:24;4.90;;;2.60;;
77026;SDS011;65956;52.986;17.490;2023-04-30T13:48:50;5.00;;;2.20;;
77026;SDS011;65956;52.986;17.490;2023-04-30T13:51:36;5.70;;;2.40;;
77026;SDS011;65956;52.986;17.490;2023-04-30T13:54:02;5.60;;;1.60;;
77026;SDS011;65956;52.986;17.490;2023-04-30T13:56:28;6.10;;;2.40;;
77026;SDS011;65956;52.986;17.490;2023-04-30T13:58:54;5.10;;;2.00;;
77026;SDS011;65956;52.986;17.490;2023-04-30T14:01:20;5.80;;;1.90;;
77026;SDS011;65956;52.986;17.490;2023-04-30T14:03:46;6.50;;;2.40;;
77026;SDS011;65956;52.986;17.490;2023-04-30T14:06:12;6.00;;;2.30;;
77026;SDS011;65956;52.986;17.490;2023-04-30T14:08:39;7.10;;;2.80;;
77026;SDS011;65956;52.986;17.490;2023-04-30T14:11:04;6.20;;;2.80;;
77026;SDS011;65956;52.986;17.490;2023-04-30T14:13:31;6.90;;;2.40;;
77026;SDS011;65956;52.986;17.490;2023-04-30T14:15:57;7.00;;;2.60;;
77026;SDS011;65956;52.986;17.490;2023-04-30T14:18:23;8.00;;;3.80;;
77026;SDS011;65956;52.986;17.490;2023-04-30T14:20:50;5.50;;;2.20;;
77026;SDS011;65956;52.986;17.490;2023-04-30T14:23:16;5.00;;;2.00;;
77026;SDS011;65956;52.986;17.490;2023-04-30T14:25:42;7.20;;;2.20;;
77026;SDS011;65956;52.986;17.490;2023-04-30T14:28:09;5.40;;;2.10;;
77026;SDS011;65956;52.986;17.490;2023-04-30T14:30:35;6.90;;;2.60;;
77026;SDS011;65956;52.986;17.490;2023-04-30T14:33:01;7.00;;;2.40;;
77026;SDS011;65956;52.986;17.490;2023-04-30T14:35:27;4.40;;;1.80;;
77026;SDS011;65956;52.986;17.490;2023-04-30T14:37:53;8.20;;;3.70;;
77026;SDS011;65956;52.986;17.490;2023-04-30T14:40:19;6.20;;;2.00;;
77026;SDS011;65956;52.986;17.490;2023-04-30T14:42:45;5.70;;;1.70;;
77026;SDS011;65956;52.986;17.490;2023-04-30T14:45:11;4.90;;;1.60;;
77026;SDS011;65956;52.986;17.490;2023-04-30T14:47:37;7.10;;;2.10;;
77026;SDS011;65956;52.986;17.490;2023-04-30T14:50:03;4.30;;;1.70;;
77026;SDS011;65956;52.986;17.490;2023-04-30T14:52:29;8.20;;;4.70;;
77026;SDS011;65956;52.986;17.490;2023-04-30T14:54:55;6.00;;;1.70;;
77026;SDS011;65956;52.986;17.490;2023-04-30T14:57:21;6.10;;;2.20;;
77026;SDS011;65956;52.986;17.490;2023-04-30T14:59:48;5.00;;;1.80;;
77026;SDS011;65956;52.986;17.490;2023-04-30T15:02:14;4.90;;;2.20;;
77026;SDS011;65956;52.986;17.490;2023-04-30T15:04:40;6.40;;;2.20;;
77026;SDS011;65956;52.986;17.490;2023-04-30T15:07:10;4.40;;;1.80;;
77026;SDS011;65956;52.986;17.490;2023-04-30T15:09:37;6.60;;;2.90;;
77026;SDS011;65956;52.986;17.490;2023-04-30T15:12:04;8.80;;;4.40;;
77026;SDS011;65956;52.986;17.490;2023-04-30T15:14:30;6.90;;;2.40;;
77026;SDS011;65956;52.986;17.490;2023-04-30T15:16:56;7.00;;;3.40;;
77026;SDS011;65956;52.986;17.490;2023-04-30T15:19:22;5.00;;;2.80;;
77026;SDS011;65956;52.986;17.490;2023-04-30T15:21:48;4.90;;;2.20;;
77026;SDS011;65956;52.986;17.490;2023-04-30T15:24:15;7.20;;;3.50;;
77026;SDS011;65956;52.986;17.490;2023-04-30T15:26:42;10.10;;;5.40;;
77026;SDS011;65956;52.986;17.490;2023-04-30T15:29:08;5.80;;;2.10;;
77026;SDS011;65956;52.986;17.490;2023-04-30T15:31:35;5.90;;;1.80;;
77026;SDS011;65956;52.986;17.490;2023-04-30T15:34:01;6.40;;;2.40;;
77026;SDS011;65956;52.986;17.490;2023-04-30T15:36:27;5.90;;;3.00;;
77026;SDS011;65956;52.986;17.490;2023-04-30T15:38:53;6.60;;;2.70;;
77026;SDS011;65956;52.986;17.490;2023-04-30T15:41:19;4.20;;;2.00;;
77026;SDS011;65956;52.986;17.490;2023-04-30T15:43:46;5.30;;;2.20;;
77026;SDS011;65956;52.986;17.490;2023-04-30T15:46:12;4.10;;;1.80;;
77026;SDS011;65956;52.986;17.490;2023-04-30T15:48:38;7.30;;;2.80;;
77026;SDS011;65956;52.986;17.490;2023-04-30T15:51:04;6.80;;;3.20;;
77026;SDS011;65956;52.986;17.490;2023-04-30T15:53:30;5.80;;;2.10;;
77026;SDS011;65956;52.986;17.490;2023-04-30T15:55:56;5.50;;;1.80;;
77026;SDS011;65956;52.986;17.490;2023-04-30T15:58:22;6.10;;;2.30;;
77026;SDS011;65956;52.986;17.490;2023-04-30T16:00:48;6.00;;;2.80;;
77026;SDS011;65956;52.986;17.490;2023-04-30T16:03:14;14.60;;;11.40;;
77026;SDS011;65956;52.986;17.490;2023-04-30T16:05:40;6.90;;;3.50;;
77026;SDS011;65956;52.986;17.490;2023-04-30T16:08:06;9.00;;;2.60;;
77026;SDS011;65956;52.986;17.490;2023-04-30T16:10:33;37.70;;;33.60;;
77026;SDS011;65956;52.986;17.490;2023-04-30T16:12:59;8.00;;;4.60;;
77026;SDS011;65956;52.986;17.490;2023-04-30T16:15:25;10.40;;;4.40;;
77026;SDS011;65956;52.986;17.490;2023-04-30T16:17:52;10.60;;;5.60;;
77026;SDS011;65956;52.986;17.490;2023-04-30T16:20:18;16.50;;;9.70;;
77026;SDS011;65956;52.986;17.490;2023-04-30T16:22:45;13.90;;;7.50;;
77026;SDS011;65956;52.986;17.490;2023-04-30T16:25:12;7.80;;;3.30;;
77026;SDS011;65956;52.986;17.490;2023-04-30T16:27:38;10.50;;;5.60;;
77026;SDS011;65956;52.986;17.490;2023-04-30T16:30:04;8.30;;;3.90;;
77026;SDS011;65956;52.986;17.490;2023-04-30T16:32:31;9.30;;;4.60;;
77026;SDS011;65956;52.986;17.490;2023-04-30T16:34:57;8.10;;;3.80;;
77026;SDS011;65956;52.986;17.490;2023-04-30T16:37:22;8.50;;;4.40;;
77026;SDS011;65956;52.986;17.490;2023-04-30T16:39:49;6.80;;;3.00;;
77026;SDS011;65956;52.986;17.490;2023-04-30T16:42:14;8.40;;;3.90;;
77026;SDS011;65956;52.986;17.490;2023-04-30T16:44:40;4.60;;;2.10;;
77026;SDS011;65956;52.986;17.490;2023-04-30T16:47:06;6.50;;;2.80;;
77026;SDS011;65956;52.986;17.490;2023-04-30T16:49:33;6.20;;;2.90;;
77026;SDS011;65956;52.986;17.490;2023-04-30T16:51:59;9.20;;;3.00;;
77026;SDS011;65956;52.986;17.490;2023-04-30T16:54:26;5.20;;;2.40;;
77026;SDS011;65956;52.986;17.490;2023-04-30T16:56:52;9.50;;;4.20;;
77026;SDS011;65956;52.986;17.490;2023-04-30T16:59:18;10.10;;;5.50;;
77026;SDS011;65956;52.986;17.490;2023-04-30T17:01:45;10.80;;;5.00;;